Time;durP1;ratioP1;P1;durP2;ratioP2;P2;SDS_P1;SDS_P2;PMS_P1;PMS_P2;Temp;Humidity;BMP_temperature;BMP_pressure;BME280_temperature;BME280_humidity;BME280_pressure;Samples;Min_cycle;Max_cycle;Signal;HPM_P1;HPM_P2
2023/06/08 00:01:57;;;;;;;11.90;5.17;;;;;;;-145.18;100.00;46695.56;5035838;28;20041;-83
2023/06/08 00:04:23;;;;;;;18.77;6.27;;;;;;;-145.18;100.00;46689.69;5052352;28;20921;-83
2023/06/08 00:06:52;;;;;;;12.27;6.23;;;;;;;-145.18;100.00;46695.56;5019965;28;20128;-83
2023/06/08 00:09:18;;;;;;;13.13;5.90;;;;;;;-145.18;100.00;46693.59;5039592;28;20123;-83
2023/06/08 00:11:43;;;;;;;16.73;6.10;;;;;;;-145.18;100.00;46697.50;5072759;28;20044;-83
2023/06/08 00:14:09;;;;;;;13.90;7.10;;;;;;;-145.18;100.00;46693.59;5051751;28;20063;-83
2023/06/08 00:16:34;;;;;;;12.03;5.83;;;;;;;-145.18;100.00;46695.56;5038375;28;20498;-83
2023/06/08 00:19:01;;;;;;;11.87;6.10;;;;;;;-145.18;100.00;46697.50;5055347;28;20376;-83
2023/06/08 00:21:29;;;;;;;15.70;6.13;;;;;;;-145.18;100.00;46693.59;5038718;28;20028;-83
2023/06/08 00:23:55;;;;;;;11.40;5.73;;;;;;;-145.18;100.00;46693.59;5054860;28;20064;-83
2023/06/08 00:26:21;;;;;;;11.27;5.20;;;;;;;-145.18;100.00;46689.69;5072415;28;20025;-84
2023/06/08 00:28:48;;;;;;;9.47;6.40;;;;;;;-145.18;100.00;46695.56;5035961;28;20047;-83
2023/06/08 00:31:15;;;;;;;15.07;5.83;;;;;;;-145.18;100.00;46693.59;5069229;28;20400;-84
2023/06/08 00:33:40;;;;;;;15.97;5.73;;;;;;;-145.18;100.00;46693.59;5055247;28;20020;-84
2023/06/08 00:36:06;;;;;;;13.47;6.20;;;;;;;-145.18;100.00;46691.66;5054579;28;20120;-83
2023/06/08 00:38:31;;;;;;;13.40;5.90;;;;;;;-145.18;100.00;46687.75;5054934;28;20182;-83
2023/06/08 00:40:57;;;;;;;12.67;5.87;;;;;;;-145.18;100.00;46691.66;5038003;28;20194;-84
2023/06/08 00:43:22;;;;;;;16.10;6.73;;;;;;;-145.18;100.00;46693.59;5054798;28;20052;-83
2023/06/08 00:45:48;;;;;;;15.07;5.93;;;;;;;-145.18;100.00;46687.75;5072122;28;20452;-83
2023/06/08 00:48:15;;;;;;;14.67;6.83;;;;;;;-145.18;100.00;46685.78;5060399;28;20036;-83
2023/06/08 00:50:43;;;;;;;13.97;6.20;;;;;;;-145.18;100.00;46691.66;5031787;28;20052;-83
2023/06/08 00:53:08;;;;;;;12.60;5.70;;;;;;;-145.18;100.00;46683.84;5066341;28;20113;-83
2023/06/08 00:55:34;;;;;;;15.27;6.60;;;;;;;-145.18;100.00;46679.94;5038158;28;20487;-83
2023/06/08 00:58:01;;;;;;;11.20;6.20;;;;;;;-145.18;100.00;46681.88;5035381;28;20061;-83
2023/06/08 01:00:28;;;;;;;16.33;7.33;;;;;;;-145.18;100.00;46687.75;5072040;28;20029;-83
2023/06/08 01:02:55;;;;;;;9.77;5.80;;;;;;;-145.18;100.00;46685.78;5037339;28;20047;-84
2023/06/08 01:05:21;;;;;;;15.43;6.83;;;;;;;-145.18;100.00;46676.03;5054671;28;20082;-83
2023/06/08 01:08:14;;;;;;;15.13;6.93;;;;;;;-145.18;100.00;46677.97;5040538;28;20496;-83
2023/06/08 01:11:03;;;;;;;11.37;7.13;;;;;;;-145.18;100.00;46677.97;5054505;28;20060;-83
2023/06/08 01:13:56;;;;;;;16.67;6.73;;;;;;;-145.18;100.00;46677.97;5055741;28;20029;-83
2023/06/08 01:16:28;;;;;;;14.57;6.57;;;;;;;-145.18;100.00;46674.06;5069910;28;20052;-83
2023/06/08 01:18:58;;;;;;;12.87;6.73;;;;;;;-145.18;100.00;46674.06;5055349;28;20131;-83
2023/06/08 01:21:28;;;;;;;13.93;6.93;;;;;;;-145.18;100.00;46677.97;5053933;28;20079;-82
2023/06/08 01:24:19;;;;;;;16.50;6.93;;;;;;;-145.18;100.00;46664.31;5071629;28;20028;-82
2023/06/08 01:26:50;;;;;;;14.57;6.67;;;;;;;-145.18;100.00;46672.13;5044127;28;20395;-82
2023/06/08 01:29:17;;;;;;;12.40;6.23;;;;;;;-145.18;100.00;46670.16;5053992;28;20048;-82
2023/06/08 01:31:43;;;;;;;20.33;7.00;;;;;;;-145.18;100.00;46668.22;5072182;28;20868;-82
2023/06/08 01:34:13;;;;;;;15.03;7.13;;;;;;;-145.18;100.00;46664.31;5053682;28;20028;-82
2023/06/08 01:36:44;;;;;;;14.00;7.33;;;;;;;-145.18;100.00;46668.22;5069593;28;20071;-82
2023/06/08 01:39:27;;;;;;;14.87;7.53;;;;;;;-145.18;100.00;46666.25;5053861;28;20021;-83
2023/06/08 01:41:55;;;;;;;20.93;8.10;;;;;;;-145.18;100.00;46668.22;5070942;28;20040;-82
2023/06/08 01:44:22;;;;;;;15.97;8.13;;;;;;;-145.18;100.00;46666.25;5059858;28;20029;-82
2023/06/08 01:46:55;;;;;;;14.43;6.93;;;;;;;-145.18;100.00;46664.31;5058732;28;20032;-83
2023/06/08 01:49:23;;;;;;;17.23;7.90;;;;;;;-145.18;100.00;46664.31;5071744;28;20017;-83
2023/06/08 01:51:48;;;;;;;17.77;7.77;;;;;;;-145.18;100.00;46658.44;5043355;28;20029;-82
2023/06/08 01:54:15;;;;;;;17.93;7.13;;;;;;;-145.18;100.00;46664.31;5071640;28;20021;-83
2023/06/08 01:56:41;;;;;;;16.33;7.20;;;;;;;-145.18;100.00;46658.44;5055372;28;20028;-82
2023/06/08 01:59:06;;;;;;;17.47;7.23;;;;;;;-145.18;100.00;46666.25;5047664;28;20024;-82
2023/06/08 02:01:32;;;;;;;18.73;7.93;;;;;;;-145.18;100.00;46660.41;5057666;28;20043;-82
2023/06/08 02:03:57;;;;;;;18.37;8.53;;;;;;;-145.18;100.00;46660.41;5048851;28;20036;-82
2023/06/08 02:06:26;;;;;;;13.63;8.10;;;;;;;-145.18;100.00;46656.50;5071127;28;20365;-82
2023/06/08 02:08:52;;;;;;;22.63;8.77;;;;;;;-145.18;100.00;46660.41;5057411;28;20070;-82
2023/06/08 02:11:17;;;;;;;20.10;8.87;;;;;;;-145.18;100.00;46652.59;5057099;28;20036;-82
2023/06/08 02:13:44;;;;;;;19.57;8.33;;;;;;;-145.18;100.00;46654.53;5057248;28;20024;-82
2023/06/08 02:16:11;;;;;;;17.80;8.47;;;;;;;-145.18;100.00;46660.41;5074863;28;20043;-82
2023/06/08 02:18:41;;;;;;;21.30;8.40;;;;;;;-145.18;100.00;46652.59;5057599;28;20025;-82
2023/06/08 02:21:07;;;;;;;17.37;7.47;;;;;;;-145.18;100.00;46658.44;5054364;28;20025;-82
2023/06/08 02:23:33;;;;;;;16.40;8.20;;;;;;;-145.18;100.00;46652.59;5080311;28;20040;-82
2023/06/08 02:25:58;;;;;;;15.03;7.43;;;;;;;-145.18;100.00;46660.41;5081076;28;20028;-82
2023/06/08 02:28:24;;;;;;;15.93;7.60;;;;;;;-145.18;100.00;46650.63;5079169;28;20036;-82
2023/06/08 02:30:50;;;;;;;16.10;8.03;;;;;;;-145.18;100.00;46660.41;5061625;28;20111;-82
2023/06/08 02:33:16;;;;;;;18.93;8.33;;;;;;;-145.18;100.00;46654.53;5041517;28;20028;-83
2023/06/08 02:35:42;;;;;;;17.87;8.17;;;;;;;-145.18;100.00;46654.53;5056978;28;20589;-82
2023/06/08 02:38:08;;;;;;;19.10;8.13;;;;;;;-145.18;100.00;46654.53;5057370;28;20037;-83
2023/06/08 02:40:33;;;;;;;17.47;8.20;;;;;;;-145.18;100.00;46652.59;5073872;28;20437;-82
2023/06/08 02:42:59;;;;;;;16.57;8.47;;;;;;;-145.18;100.00;46654.53;5037049;28;20045;-82
2023/06/08 02:45:26;;;;;;;16.30;8.63;;;;;;;-145.18;100.00;46650.63;5071329;28;20039;-82
2023/06/08 02:47:52;;;;;;;16.87;7.63;;;;;;;-145.18;100.00;46654.53;5047428;28;20113;-82
2023/06/08 02:50:18;;;;;;;20.00;8.37;;;;;;;-145.18;100.00;46654.53;5070875;28;20439;-83
2023/06/08 02:52:43;;;;;;;15.23;7.77;;;;;;;-145.18;100.00;46654.53;5046879;28;20025;-83
2023/06/08 02:55:09;;;;;;;15.87;8.10;;;;;;;-145.18;100.00;46646.72;5056377;28;20031;-82
2023/06/08 02:57:36;;;;;;;16.47;8.53;;;;;;;-145.18;100.00;46646.72;5056309;28;20028;-82
2023/06/08 03:00:07;;;;;;;19.57;8.23;;;;;;;-145.18;100.00;46646.72;5052726;28;20476;-83
2023/06/08 03:02:33;;;;;;;15.33;8.87;;;;;;;-145.18;100.00;46648.69;5047330;28;20071;-82
2023/06/08 03:05:04;;;;;;;17.67;8.20;;;;;;;-145.18;100.00;46648.69;5054253;28;20086;-82
2023/06/08 03:08:13;;;;;;;17.33;8.43;;;;;;;-145.18;100.00;46648.69;5074046;28;20053;-82
2023/06/08 03:10:44;;;;;;;14.40;7.50;;;;;;;-145.18;100.00;46648.69;5044959;28;20037;-82
2023/06/08 03:13:14;;;;;;;21.43;8.77;;;;;;;-145.18;100.00;46646.72;5055599;28;20570;-82
2023/06/08 03:15:45;;;;;;;22.83;8.33;;;;;;;-145.18;100.00;46650.63;5043138;28;20029;-82
2023/06/08 03:18:11;;;;;;;24.17;8.17;;;;;;;-145.18;100.00;46646.72;5014203;28;20038;-82
2023/06/08 03:20:44;;;;;;;20.13;8.30;;;;;;;-145.18;100.00;46656.50;5051804;28;20377;-82
2023/06/08 03:27:09;;;;;;;18.70;8.20;;;;;;;-145.18;100.00;46642.81;5047764;28;20091;-82
2023/06/08 03:29:47;;;;;;;19.37;8.47;;;;;;;-145.18;100.00;46650.63;5035703;28;20036;-82
2023/06/08 03:32:18;;;;;;;19.10;8.87;;;;;;;-145.18;100.00;46650.63;5034894;28;20114;-82
2023/06/08 03:35:23;;;;;;;28.07;9.47;;;;;;;-145.18;100.00;46646.72;5053952;28;20029;-82
2023/06/08 03:37:50;;;;;;;19.50;9.40;;;;;;;-145.18;100.00;46644.78;5005617;28;20026;-82
2023/06/08 03:40:38;;;;;;;17.27;8.50;;;;;;;-145.18;100.00;46652.59;5053707;28;20037;-82
2023/06/08 03:43:20;;;;;;;;;;;;;;;;;;;;;
2023/06/08 03:46:49;;;;;;;17.43;8.97;;;;;;;-145.18;100.00;46648.69;5037191;28;20029;-82
2023/06/08 03:49:26;;;;;;;24.07;8.53;;;;;;;-145.18;100.00;46654.53;5024808;28;20396;-82
2023/06/08 03:51:57;;;;;;;17.53;8.77;;;;;;;-145.18;100.00;46648.69;5025471;28;20033;-82
2023/06/08 03:54:52;;;;;;;15.73;8.40;;;;;;;-145.18;100.00;46650.63;5054552;28;20044;-82
2023/06/08 03:57:25;;;;;;;19.50;8.13;;;;;;;-145.18;100.00;46648.69;5036125;28;20395;-82
2023/06/08 04:00:15;;;;;;;16.73;8.50;;;;;;;-145.18;100.00;46654.53;5064928;28;20064;-81
2023/06/08 04:02:56;;;;;;;;;;;;;;;;;;;;;
2023/06/08 04:05:25;;;;;;;21.33;8.53;;;;;;;-145.18;100.00;46650.63;5037956;28;20035;-82
2023/06/08 04:08:41;;;;;;;;;;;;;;;;;;;;;
2023/06/08 04:11:13;;;;;;;18.23;8.10;;;;;;;-145.18;100.00;46652.59;5060216;28;20387;-82
2023/06/08 04:13:58;;;;;;;21.70;9.13;;;;;;;-145.18;100.00;46656.50;5054820;28;20033;-82
2023/06/08 04:16:27;;;;;;;15.68;8.68;;;;;;;-145.18;100.00;46654.53;5045827;28;20115;-82
2023/06/08 04:18:53;;;;;;;20.13;8.53;;;;;;;-145.18;100.00;46650.63;5072473;28;20409;-82
2023/06/08 04:21:21;;;;;;;21.80;9.00;;;;;;;-145.18;100.00;46656.50;5051235;28;20069;-83
2023/06/08 04:23:46;;;;;;;22.87;8.47;;;;;;;-145.18;100.00;46650.63;5055925;28;20036;-82
2023/06/08 04:26:13;;;;;;;17.23;7.90;;;;;;;-145.18;100.00;46648.69;5054559;28;20034;-82
2023/06/08 04:29:22;;;;;;;20.83;8.87;;;;;;;-145.18;100.00;46652.59;5061761;28;20037;-82
2023/06/08 04:31:48;;;;;;;21.27;8.90;;;;;;;-145.18;100.00;46652.59;4971926;28;20113;-82
2023/06/08 04:34:17;;;;;;;22.00;8.67;;;;;;;-145.18;100.00;46648.69;4974560;28;20065;-81
2023/06/08 04:36:46;;;;;;;18.27;8.67;;;;;;;-145.18;100.00;46654.53;5021938;28;20049;-82
2023/06/08 04:39:12;;;;;;;16.83;8.97;;;;;;;-145.18;100.00;46644.78;5058006;28;20026;-81
2023/06/08 04:41:45;;;;;;;17.37;9.20;;;;;;;-145.18;100.00;46654.53;5054856;28;20507;-81
2023/06/08 04:44:13;;;;;;;19.03;9.27;;;;;;;-145.18;100.00;46656.50;5041288;28;20123;-81
2023/06/08 04:46:42;;;;;;;19.47;8.80;;;;;;;-145.18;100.00;46658.44;5072507;28;20032;-80
2023/06/08 04:49:14;;;;;;;16.17;8.90;;;;;;;-145.18;100.00;46658.44;5065756;28;20472;-81
2023/06/08 04:51:49;;;;;;;16.37;8.40;;;;;;;-145.18;100.00;46654.53;5067357;28;20024;-81
2023/06/08 04:54:23;;;;;;;15.90;9.30;;;;;;;-145.18;100.00;46658.44;5055730;28;20128;-81
2023/06/08 04:56:53;;;;;;;19.67;9.07;;;;;;;-145.18;100.00;46658.44;5071465;28;20028;-81
2023/06/08 05:03:09;;;;;;;16.30;9.80;;;;;;;-145.18;100.00;46660.41;4929181;28;20039;-81
2023/06/08 05:05:55;;;;;;;18.50;9.00;;;;;;;-145.18;100.00;46660.41;4942693;28;20039;-81
2023/06/08 05:08:20;;;;;;;19.10;8.90;;;;;;;-145.18;100.00;46660.41;5036278;28;20120;-80
2023/06/08 05:10:55;;;;;;;21.77;10.00;;;;;;;-145.18;100.00;46658.44;5053226;28;20162;-81
2023/06/08 05:13:23;;;;;;;14.57;8.43;;;;;;;-145.18;100.00;46658.44;5045796;28;20034;-81
2023/06/08 05:15:51;;;;;;;17.43;8.83;;;;;;;-145.18;100.00;46656.50;5031215;28;20033;-81
2023/06/08 05:19:02;;;;;;;13.37;8.47;;;;;;;-145.18;100.00;46656.50;5041028;28;20099;-81
2023/06/08 05:24:12;;;;;;;17.03;9.10;;;;;;;-145.18;100.00;46662.34;5051878;28;20035;-80
2023/06/08 05:34:45;;;;;;;;;;;;;;;;;;;;;
2023/06/08 06:25:52;;;;;;;20.97;8.97;;;;;;;-145.18;100.00;46646.72;4926079;29;20030;-82
2023/06/08 06:31:48;;;;;;;17.67;9.00;;;;;;;-145.18;100.00;46654.53;4939581;28;20042;-84
2023/06/08 06:34:57;;;;;;;17.60;8.77;;;;;;;-145.18;100.00;46654.53;5046705;28;20033;-83
2023/06/08 06:37:34;;;;;;;;;;;;;;;;;;;;;
2023/06/08 06:40:06;;;;;;;22.57;8.63;;;;;;;-145.18;100.00;46666.25;5050837;28;20024;-82
2023/06/08 06:43:08;;;;;;;19.10;10.07;;;;;;;-145.18;100.00;46656.50;5053164;28;20099;-83
2023/06/08 06:45:33;;;;;;;23.90;9.73;;;;;;;-145.18;100.00;46646.72;5041984;28;20041;-85
2023/06/08 06:48:00;;;;;;;18.80;9.67;;;;;;;-145.18;100.00;46633.06;5012902;28;20037;-85
2023/06/08 06:53:43;;;;;;;16.87;9.07;;;;;;;-145.18;100.00;46590.06;4982031;28;20038;-83
2023/06/08 06:56:26;;;;;;;19.63;10.27;;;;;;;-145.18;100.00;46574.44;5044458;28;20120;-83
2023/06/08 06:58:52;;;;;;;16.70;9.00;;;;;;;-145.18;100.00;46562.72;5005990;28;20046;-83
2023/06/08 07:01:18;;;;;;;15.57;9.90;;;;;;;-145.18;100.00;46551.00;4990001;28;20061;-86
2023/06/08 07:03:44;;;;;;;23.30;9.77;;;;;;;-145.18;100.00;46547.09;5003985;28;20037;-85
2023/06/08 07:06:11;;;;;;;18.70;9.20;;;;;;;-145.18;100.00;46543.19;5013122;28;20201;-85
2023/06/08 07:08:37;;;;;;;18.67;8.60;;;;;;;-145.18;100.00;46541.25;5019959;28;20494;-85
2023/06/08 07:11:03;;;;;;;15.47;9.30;;;;;;;-145.18;100.00;46539.28;5027563;28;20408;-84
2023/06/08 07:13:28;;;;;;;18.77;8.77;;;;;;;-145.18;100.00;46537.34;5031760;28;20029;-85
2023/06/08 07:15:54;;;;;;;15.83;8.40;;;;;;;-145.18;100.00;46547.09;5014861;28;20065;-85
2023/06/08 07:18:20;;;;;;;13.70;8.70;;;;;;;-145.18;100.00;46543.19;5026085;28;20087;-85
2023/06/08 07:20:46;;;;;;;16.77;8.27;;;;;;;-145.18;100.00;46554.91;5014781;28;20034;-85
2023/06/08 07:23:11;;;;;;;15.33;8.83;;;;;;;-145.18;100.00;46552.97;5035117;28;20492;-85
2023/06/08 07:25:37;;;;;;;18.57;8.27;;;;;;;-145.18;100.00;46556.88;5074020;28;20499;-85
2023/06/08 07:28:08;;;;;;;16.67;8.27;;;;;;;-145.18;100.00;46556.88;5073872;28;20110;-85
2023/06/08 07:30:33;;;;;;;16.73;8.00;;;;;;;-145.18;100.00;46552.97;5073229;28;20112;-86
2023/06/08 07:47:12;;;;;;;12.10;7.47;;;;;;;-145.18;100.00;46560.78;4856172;29;20124;-83
2023/06/08 08:00:23;;;;;;;13.27;7.13;;;;;;;-145.18;100.00;46570.53;4859535;29;20052;-84
2023/06/08 08:03:21;;;;;;;11.75;8.18;;;;;;;-145.18;100.00;46562.72;4820711;29;20054;-83
2023/06/08 08:05:49;;;;;;;16.03;7.67;;;;;;;-145.18;100.00;46560.78;4832148;29;20168;-85
2023/06/08 08:08:17;;;;;;;21.43;8.90;;;;;;;-145.18;100.00;46568.59;4929414;29;20660;-84
2023/06/08 08:10:42;;;;;;;15.67;7.57;;;;;;;-145.18;100.00;46593.97;4997329;28;20128;-84
2023/06/08 08:13:08;;;;;;;13.50;7.57;;;;;;;-145.18;100.00;46560.78;5014000;28;20125;-85
2023/06/08 08:15:34;;;;;;;13.90;7.60;;;;;;;-145.18;100.00;46574.44;5039220;28;20036;-85
2023/06/08 08:18:00;;;;;;;18.77;8.27;;;;;;;-145.18;100.00;46578.34;5016494;28;20102;-84
2023/06/08 08:20:25;;;;;;;13.53;7.70;;;;;;;-145.18;100.00;46574.44;5033714;28;20044;-85
2023/06/08 08:22:51;;;;;;;13.83;7.37;;;;;;;-145.18;100.00;46576.41;5048875;28;20114;-85
2023/06/08 08:25:16;;;;;;;16.80;8.07;;;;;;;-145.18;100.00;46572.50;5018831;28;20057;-85
2023/06/08 08:27:48;;;;;;;13.47;8.20;;;;;;;-145.18;100.00;46566.63;5027408;28;20037;-83
2023/06/08 08:30:14;;;;;;;13.47;8.03;;;;;;;-145.18;100.00;46564.69;5054386;28;20136;-85
2023/06/08 08:32:40;;;;;;;11.90;7.93;;;;;;;-145.18;100.00;46580.31;5053420;28;20024;-86
2023/06/08 08:35:06;;;;;;;13.63;8.37;;;;;;;-145.18;100.00;46590.06;5034776;28;20106;-85
2023/06/08 08:37:31;;;;;;;15.73;8.40;;;;;;;-145.18;100.00;46592.03;5069413;28;20020;-85
2023/06/08 08:39:57;;;;;;;14.17;7.40;;;;;;;-145.18;100.00;46625.22;5072428;28;20039;-85
2023/06/08 08:42:26;;;;;;;13.40;7.60;;;;;;;-145.18;100.00;46580.31;5037685;28;20048;-85
2023/06/08 08:44:54;;;;;;;15.93;8.40;;;;;;;-145.18;100.00;46621.31;5070009;28;20036;-85
2023/06/08 08:47:23;;;;;;;15.30;8.20;;;;;;;-145.18;100.00;46625.22;5072407;28;20024;-85
2023/06/08 08:49:58;;;;;;;15.80;8.07;;;;;;;-145.18;100.00;46605.69;5054459;28;20531;-85
2023/06/08 08:52:26;;;;;;;14.73;8.40;;;;;;;-145.18;100.00;46611.56;5065411;28;20028;-85
2023/06/08 08:54:55;;;;;;;13.47;7.70;;;;;;;-145.18;100.00;46603.75;5053694;28;20043;-85
2023/06/08 08:57:21;;;;;;;11.67;8.37;;;;;;;-145.18;100.00;46623.28;5061024;28;20028;-85
2023/06/08 08:59:47;;;;;;;15.90;8.00;;;;;;;-145.18;100.00;46617.41;5054080;28;20393;-85
2023/06/08 09:02:13;;;;;;;14.00;7.30;;;;;;;-145.18;100.00;46646.72;5048236;28;20036;-86
2023/06/08 09:04:39;;;;;;;10.33;7.40;;;;;;;-145.18;100.00;46656.50;5070171;28;20086;-86
2023/06/08 09:07:04;;;;;;;15.73;8.13;;;;;;;-145.18;100.00;46636.94;5068362;28;20434;-86
2023/06/08 09:09:30;;;;;;;12.17;8.20;;;;;;;-145.18;100.00;46615.47;5045287;28;20048;-86
2023/06/08 09:12:00;;;;;;;13.70;8.33;;;;;;;-145.18;100.00;46789.31;5051533;28;20039;-86
2023/06/08 09:14:27;;;;;;;17.23;8.00;;;;;;;-145.18;100.00;47148.75;5042968;28;20112;-85
2023/06/08 09:16:53;;;;;;;11.70;7.33;;;;;;;-145.18;100.00;47152.66;5050296;28;20464;-85
2023/06/08 09:19:24;;;;;;;14.17;7.63;;;;;;;-145.18;100.00;46808.84;5034484;28;20036;-83
2023/06/08 09:21:50;;;;;;;13.73;8.73;;;;;;;-145.18;100.00;47195.66;5040641;28;20369;-86
2023/06/08 09:24:22;;;;;;;17.90;9.33;;;;;;;-145.18;100.00;47178.06;5047869;28;20035;-86
2023/06/08 09:26:51;;;;;;;13.03;7.60;;;;;;;-145.18;100.00;47146.81;5049371;28;20021;-85
2023/06/08 09:29:39;;;;;;;14.37;7.57;;;;;;;-145.18;100.00;47176.09;5051519;28;20016;-86
2023/06/08 09:32:12;;;;;;;19.33;7.40;;;;;;;-145.18;100.00;47164.38;5050042;28;20044;-86
2023/06/08 09:34:55;;;;;;;16.23;7.63;;;;;;;-145.18;100.00;47158.53;5048393;28;20021;-84
2023/06/08 09:37:32;;;;;;;14.03;8.17;;;;;;;-145.18;100.00;47137.03;5051400;28;20029;-86
2023/06/08 09:40:00;;;;;;;13.50;8.10;;;;;;;-145.18;100.00;47144.84;5039292;28;20025;-86
2023/06/08 09:42:50;;;;;;;11.63;7.93;;;;;;;-145.18;100.00;47097.97;5043861;28;20033;-86
2023/06/08 09:45:21;;;;;;;10.63;7.93;;;;;;;-145.18;100.00;47111.66;5045383;28;20091;-86
2023/06/08 09:47:47;;;;;;;12.67;7.70;;;;;;;-145.18;100.00;47119.47;5040005;28;20029;-84
2023/06/08 09:50:13;;;;;;;10.23;7.23;;;;;;;-145.18;100.00;47070.63;5051157;28;20039;-86
2023/06/08 09:52:39;;;;;;;13.67;8.13;;;;;;;-145.18;100.00;47117.50;5030245;28;20032;-86
2023/06/08 09:55:05;;;;;;;17.20;8.13;;;;;;;-145.18;100.00;47078.44;5051446;28;20033;-86
2023/06/08 09:57:37;;;;;;;14.93;8.77;;;;;;;-145.18;100.00;47066.72;5041396;28;20033;-86
2023/06/08 10:00:13;;;;;;;15.23;7.97;;;;;;;-145.18;100.00;47103.81;5047247;28;20029;-84
2023/06/08 10:02:45;;;;;;;14.25;7.40;;;;;;;-145.18;100.00;47062.81;5051380;28;20392;-86
2023/06/08 10:05:15;;;;;;;16.83;7.83;;;;;;;-145.18;100.00;47078.44;5051625;28;20025;-84
2023/06/08 10:07:46;;;;;;;14.10;6.97;;;;;;;-145.18;100.00;47058.91;5053405;28;20151;-85
2023/06/08 10:10:20;;;;;;;11.70;7.70;;;;;;;-145.18;100.00;47055.00;5045728;28;20400;-85
2023/06/08 10:12:46;;;;;;;9.30;6.67;;;;;;;-145.18;100.00;47039.34;5068614;28;20029;-86
2023/06/08 10:15:12;;;;;;;12.27;7.10;;;;;;;-145.18;100.00;47015.91;5040603;28;20036;-86
2023/06/08 10:17:38;;;;;;;11.73;6.17;;;;;;;-145.18;100.00;47013.97;5036700;28;20033;-86
2023/06/08 10:20:05;;;;;;;9.97;6.93;;;;;;;-145.18;100.00;47045.22;5074101;28;20095;-86
2023/06/08 10:22:31;;;;;;;14.10;7.03;;;;;;;-145.18;100.00;47008.09;5054518;28;20032;-86
2023/06/08 10:24:58;;;;;;;15.17;6.20;;;;;;;-145.18;100.00;47010.06;5073613;28;20028;-86
2023/06/08 10:27:23;;;;;;;9.43;6.40;;;;;;;-145.18;100.00;47017.88;5054101;28;20042;-86
2023/06/08 10:30:03;;;;;;;11.13;6.00;;;;;;;-145.18;100.00;47049.13;5063025;28;20469;-85
2023/06/08 10:32:33;;;;;;;10.13;6.70;;;;;;;-145.18;100.00;47023.72;5055154;28;20035;-85
2023/06/08 10:35:03;;;;;;;16.87;7.30;;;;;;;-145.18;100.00;47017.88;5065399;28;20031;-84
2023/06/08 10:38:07;;;;;;;9.63;5.87;;;;;;;-145.18;100.00;47017.88;5073261;28;20091;-84
2023/06/08 10:40:27;;;;;;;12.50;6.00;;;;;;;-145.18;100.00;47025.69;5067820;28;20032;-85
2023/06/08 10:42:58;;;;;;;13.23;7.20;;;;;;;-145.18;100.00;46988.56;5044782;28;20179;-85
2023/06/08 10:45:33;;;;;;;10.05;6.00;;;;;;;-145.18;100.00;46976.84;5069764;28;20073;-85
2023/06/08 10:48:09;;;;;;;10.68;6.18;;;;;;;-145.18;100.00;46996.38;5054370;28;20051;-85
2023/06/08 10:50:39;;;;;;;9.35;6.30;;;;;;;-145.18;100.00;47029.59;5068430;28;20056;-86
2023/06/08 10:53:05;;;;;;;11.02;5.63;;;;;;;-145.18;100.00;46988.56;5055384;28;20032;-85
2023/06/08 10:55:31;;;;;;;9.15;5.50;;;;;;;-145.18;100.00;47012.00;5068320;28;20116;-85
2023/06/08 10:58:18;;;;;;;6.10;4.38;;;;;;;-145.18;100.00;46986.63;5038968;28;20070;-85
2023/06/08 11:00:45;;;;;;;8.38;5.20;;;;;;;-145.18;100.00;47006.16;5060098;28;20036;-85
2023/06/08 11:03:19;;;;;;;7.93;4.80;;;;;;;-145.18;100.00;47000.28;5055192;28;20021;-85
2023/06/08 11:05:50;;;;;;;10.35;4.70;;;;;;;-145.18;100.00;46949.50;5055131;28;20063;-85
2023/06/08 11:08:19;;;;;;;10.93;6.32;;;;;;;-145.18;100.00;46982.72;5032483;28;1151682;-84
2023/06/08 11:10:52;;;;;;;8.02;5.20;;;;;;;-145.18;100.00;46978.81;5071259;28;20045;-83
2023/06/08 11:13:18;;;;;;;9.85;4.85;;;;;;;-145.18;100.00;47002.25;5073763;28;20013;-82
2023/06/08 11:15:48;;;;;;;7.22;5.20;;;;;;;-145.18;100.00;46984.66;5055853;28;20021;-83
2023/06/08 11:18:18;;;;;;;6.38;4.20;;;;;;;-145.18;100.00;47013.97;5056152;28;20032;-83
2023/06/08 11:20:44;;;;;;;7.97;4.85;;;;;;;-145.18;100.00;46980.75;5073867;28;20158;-84
2023/06/08 11:23:11;;;;;;;10.75;6.05;;;;;;;-145.18;100.00;46963.19;5055039;28;20123;-85
2023/06/08 11:25:37;;;;;;;9.45;5.15;;;;;;;-145.18;100.00;46965.13;5055633;28;20536;-84
2023/06/08 11:28:04;;;;;;;11.15;5.40;;;;;;;-145.18;100.00;46976.84;5035781;28;20370;-84
2023/06/08 11:30:34;;;;;;;11.02;4.97;;;;;;;-145.18;100.00;46959.25;5054224;28;20033;-85
2023/06/08 11:33:03;;;;;;;11.65;5.47;;;;;;;-145.18;100.00;47021.78;5039778;28;20035;-84
2023/06/08 11:35:28;;;;;;;8.10;5.60;;;;;;;-145.18;100.00;46974.91;5073792;28;20047;-84
2023/06/08 11:37:59;;;;;;;10.32;5.70;;;;;;;-145.18;100.00;46990.53;5073382;28;20028;-83
2023/06/08 11:40:25;;;;;;;7.90;5.10;;;;;;;-145.18;100.00;46969.03;5038214;28;20037;-83
2023/06/08 11:42:51;;;;;;;14.35;6.13;;;;;;;-145.18;100.00;46998.34;5073351;28;20039;-83
2023/06/08 11:45:17;;;;;;;9.05;4.78;;;;;;;-145.18;100.00;46967.09;5055499;28;20031;-84
2023/06/08 11:47:44;;;;;;;9.45;5.82;;;;;;;-145.18;100.00;46941.69;5064811;28;20056;-84
2023/06/08 11:50:11;;;;;;;10.40;5.32;;;;;;;-145.18;100.00;46949.50;5050362;28;20028;-82
2023/06/08 11:52:42;;;;;;;8.98;5.07;;;;;;;-145.18;100.00;46947.53;5054913;28;20111;-83
2023/06/08 11:55:13;;;;;;;8.35;4.75;;;;;;;-145.18;100.00;46976.84;5073188;28;20056;-83
2023/06/08 11:57:41;;;;;;;9.13;5.82;;;;;;;-145.18;100.00;46963.19;5054686;28;20464;-84
2023/06/08 12:00:11;;;;;;;7.15;5.10;;;;;;;-145.18;100.00;46951.44;5055666;28;20102;-84
2023/06/08 12:06:00;;;;;;;8.43;5.32;;;;;;;-145.18;100.00;46949.50;5063436;28;20044;-83
2023/06/08 12:12:10;;;;;;;10.02;5.72;;;;;;;-145.18;100.00;47019.81;5071542;28;20067;-83
2023/06/08 12:14:46;;;;;;;9.63;5.47;;;;;;;-145.18;100.00;47004.19;5019769;28;20519;-84
2023/06/08 12:17:31;;;;;;;9.75;5.22;;;;;;;-145.18;100.00;46982.72;5050754;28;20037;-83
2023/06/08 12:20:00;;;;;;;8.57;5.70;;;;;;;-145.18;100.00;46953.41;5063223;28;20021;-83
2023/06/08 12:22:26;;;;;;;11.43;5.57;;;;;;;-145.18;100.00;46947.53;5070264;28;20040;-83
2023/06/08 12:24:54;;;;;;;12.20;5.55;;;;;;;-145.18;100.00;46957.31;5052725;28;20036;-83
2023/06/08 12:27:19;;;;;;;11.65;5.72;;;;;;;-145.18;100.00;46955.34;5051072;28;20032;-83
2023/06/08 12:29:46;;;;;;;15.27;5.30;;;;;;;-145.18;100.00;46965.13;5054143;28;20078;-83
2023/06/08 12:32:11;;;;;;;9.23;5.97;;;;;;;-145.18;100.00;46947.53;5070467;28;20108;-83
2023/06/08 12:34:37;;;;;;;9.07;5.47;;;;;;;-145.18;100.00;46961.22;5038186;28;20115;-83
2023/06/08 12:37:03;;;;;;;14.35;5.22;;;;;;;-145.18;100.00;46933.88;5027117;28;20055;-82
2023/06/08 12:39:28;;;;;;;8.77;4.47;;;;;;;-145.18;100.00;46949.50;5053980;28;20383;-83
2023/06/08 12:41:57;;;;;;;10.55;4.90;;;;;;;-145.18;100.00;46929.97;5062342;28;20060;-83
2023/06/08 12:44:26;;;;;;;7.35;4.90;;;;;;;-145.18;100.00;46931.91;5054405;28;20039;-83
2023/06/08 12:46:55;;;;;;;12.00;4.85;;;;;;;-145.18;100.00;46922.16;5073110;28;20025;-83
2023/06/08 12:49:22;;;;;;;12.10;4.75;;;;;;;-145.18;100.00;46922.16;5055645;28;20029;-84
2023/06/08 12:51:47;;;;;;;12.02;5.00;;;;;;;-145.18;100.00;46920.19;5063038;28;20028;-83
2023/06/08 12:54:13;;;;;;;7.88;4.85;;;;;;;-145.18;100.00;46922.16;5048522;28;20036;-84
2023/06/08 12:56:38;;;;;;;9.60;4.60;;;;;;;-145.18;100.00;46920.19;5052520;28;20063;-84
2023/06/08 12:59:04;;;;;;;8.02;4.53;;;;;;;-145.18;100.00;46918.25;5071385;28;20032;-84
2023/06/08 13:01:29;;;;;;;6.22;3.60;;;;;;;-145.18;100.00;46922.16;5068177;28;20031;-85
2023/06/08 13:03:55;;;;;;;7.35;4.50;;;;;;;-145.18;100.00;46926.06;5031138;28;20064;-85
2023/06/08 13:06:20;;;;;;;11.40;3.95;;;;;;;-145.18;100.00;46939.72;5070242;28;20024;-84
2023/06/08 13:08:46;;;;;;;5.90;4.03;;;;;;;-145.18;100.00;46931.91;5069555;28;20057;-85
2023/06/08 13:11:11;;;;;;;5.75;3.80;;;;;;;-145.18;100.00;46933.88;5049575;28;20024;-84